Lake Benton, Minnesota
Current Conditions -  °F | °C
As of 2:14 PM on Friday 31 Oct 2014 (Local Time) from KPQN Reporting Station
Clear Clear  
Wind Chill: 37°   Ceiling: Unl
Heat Index: 37°   Visibility: 10mi
Dew Point: 18°   Wind: 3mph
Humidity: 45%   Direction: 100°E
Pressure: 30.49"   Gusts: NA
Location:  44.26°N, 96.29°W
Report Text: KPQN 311914Z AUTO 10003KT 10SM CLR 03/M08 A3049 RMK AO2
Loading
Personal Weather Stations






























Interactive Weather Map
Tropical Storm Tracking
New forecast layout! Learn more

10-Day Weather Forecast

Advertisements
Track Severe Weather on mobile